Kampeska, South Dakota
Current Conditions -  °F | °C
As of 3:53 AM on Thursday 27 Nov 2014 (Local Time) from KATY Reporting Station
Clear Clear  
Wind Chill: -12°   Ceiling: Unl
Heat Index: -12°   Visibility: 10mi
Dew Point: -16°   Wind: 0mph
Humidity: 82%   Direction: NA
Pressure: 30.45"   Gusts: NA
Location:  44.9156°N, 97.1699°W
Report Text: KATY 270953Z AUTO 00000KT 10SM CLR M24/M27 A3045 RMK AO2 SLP363 T12441267
Loading
Personal Weather Stations






























Interactive Weather Map New forecast layout! Learn more

10-Day Weather Forecast

Advertisements
Track Severe Weather on mobile